createdAt,value
2023-03-08T00:01:03.269Z,1.00
2023-03-08T00:03:31.338Z,1.00
2023-03-08T00:05:59.424Z,1.00
2023-03-08T00:08:27.528Z,1.00
2023-03-08T00:10:56.954Z,1.00
2023-03-08T00:13:24.965Z,1.10
2023-03-08T00:15:53.457Z,1.10
2023-03-08T00:18:21.507Z,1.10
2023-03-08T00:20:59.000Z,1.10
2023-03-08T00:23:27.009Z,1.10
2023-03-08T00:25:56.797Z,1.10
2023-03-08T00:28:25.431Z,1.10
2023-03-08T00:30:57.603Z,1.10
2023-03-08T00:33:25.765Z,1.10
2023-03-08T00:35:58.361Z,1.10
2023-03-08T00:38:26.934Z,1.10
2023-03-08T00:40:56.626Z,1.10
2023-03-08T00:43:24.733Z,1.00
2023-03-08T00:45:53.241Z,1.10
2023-03-08T00:48:21.701Z,1.10
2023-03-08T00:50:50.078Z,1.00
2023-03-08T00:53:18.197Z,1.10
2023-03-08T00:55:51.091Z,1.00
2023-03-08T00:58:21.010Z,1.00
2023-03-08T01:00:49.496Z,1.00
2023-03-08T01:03:18.552Z,1.20
2023-03-08T01:05:48.168Z,1.00
2023-03-08T01:08:17.272Z,1.00
2023-03-08T01:10:48.948Z,1.00
2023-03-08T01:13:17.168Z,1.00
2023-03-08T01:15:46.525Z,1.00
2023-03-08T01:18:14.731Z,0.90
2023-03-08T01:20:43.055Z,1.00
2023-03-08T01:23:11.742Z,1.00
2023-03-08T01:25:39.773Z,0.90
2023-03-08T01:28:07.780Z,0.90
2023-03-08T01:30:35.768Z,0.90
2023-03-08T01:33:05.228Z,0.90
2023-03-08T01:35:33.293Z,0.90
2023-03-08T01:38:01.335Z,1.00
2023-03-08T01:40:29.348Z,1.10
2023-03-08T01:42:57.390Z,0.90
2023-03-08T01:46:02.952Z,0.90
2023-03-08T01:48:36.661Z,0.90
2023-03-08T01:51:07.211Z,0.80
2023-03-08T01:53:38.129Z,0.80
2023-03-08T01:56:07.742Z,0.90
2023-03-08T01:58:36.193Z,0.90
2023-03-08T02:01:04.327Z,0.90
2023-03-08T02:03:33.695Z,0.90
2023-03-08T02:06:01.899Z,0.90
2023-03-08T02:08:29.885Z,0.90
2023-03-08T02:10:59.039Z,0.80
2023-03-08T02:13:27.283Z,0.90
2023-03-08T02:15:57.012Z,0.90
2023-03-08T02:18:25.324Z,0.90
2023-03-08T02:20:54.669Z,0.90
2023-03-08T02:23:25.635Z,0.90
2023-03-08T02:25:56.075Z,0.90
2023-03-08T02:28:26.743Z,0.90
2023-03-08T02:30:56.101Z,0.90
2023-03-08T02:33:24.653Z,0.80
2023-03-08T02:35:53.171Z,0.90
2023-03-08T02:38:23.488Z,0.90
2023-03-08T02:40:53.093Z,0.90
2023-03-08T02:43:21.586Z,0.80
2023-03-08T02:45:50.046Z,0.80
2023-03-08T02:48:18.710Z,0.80
2023-03-08T02:50:46.859Z,0.70
2023-03-08T02:53:14.815Z,0.70
2023-03-08T02:55:44.156Z,0.70
2023-03-08T02:58:12.471Z,0.70
2023-03-08T03:00:40.544Z,0.90
2023-03-08T03:03:08.553Z,0.60
2023-03-08T03:05:36.621Z,0.70
2023-03-08T03:08:04.889Z,0.60
2023-03-08T03:10:32.905Z,0.60
2023-03-08T03:13:02.260Z,0.50
2023-03-08T03:15:30.361Z,0.50
2023-03-08T03:17:59.038Z,0.30
2023-03-08T03:20:27.378Z,0.30
2023-03-08T03:22:55.429Z,0.20
2023-03-08T03:25:23.484Z,0.10
2023-03-08T03:27:51.466Z,0.00
2023-03-08T03:30:20.865Z,-0.10
2023-03-08T03:32:48.915Z,-0.10
2023-03-08T03:35:17.040Z,-0.10
2023-03-08T03:37:45.108Z,0.00
2023-03-08T03:40:14.647Z,-0.10
2023-03-08T03:42:42.640Z,-0.20
2023-03-08T03:45:11.419Z,-0.20
2023-03-08T03:47:40.811Z,-0.30
2023-03-08T03:50:09.783Z,-0.30
2023-03-08T03:52:37.979Z,-0.20
2023-03-08T03:55:07.320Z,-0.30
2023-03-08T03:57:35.365Z,-0.20
2023-03-08T04:00:04.385Z,-0.20
2023-03-08T04:02:32.505Z,-0.30
2023-03-08T04:05:01.921Z,-0.30
2023-03-08T04:07:30.021Z,-0.30
2023-03-08T04:09:58.084Z,-0.30
2023-03-08T04:12:26.135Z,-0.40
2023-03-08T04:14:54.675Z,-0.40
2023-03-08T04:17:22.648Z,-0.50
2023-03-08T04:19:50.928Z,-0.50
2023-03-08T04:22:20.476Z,-0.60
2023-03-08T04:24:48.498Z,-0.50
2023-03-08T04:27:16.580Z,-0.60
2023-03-08T04:29:44.614Z,-0.60
2023-03-08T04:32:12.720Z,-0.60
2023-03-08T04:34:42.949Z,-0.60
2023-03-08T04:37:12.673Z,-0.50
2023-03-08T04:39:42.029Z,-0.50
2023-03-08T04:42:10.044Z,-0.50
2023-03-08T04:44:38.087Z,-0.40
2023-03-08T04:47:06.336Z,-0.40
2023-03-08T04:49:34.402Z,-0.40
2023-03-08T04:52:02.572Z,-0.40
2023-03-08T04:54:30.648Z,-0.40
2023-03-08T04:57:00.082Z,-0.40
2023-03-08T04:59:28.095Z,-0.30
2023-03-08T05:01:56.139Z,-0.30
2023-03-08T05:04:24.184Z,-0.30
2023-03-08T05:06:52.209Z,-0.30
2023-03-08T05:09:20.214Z,-0.30
2023-03-08T05:11:48.251Z,-0.30
2023-03-08T05:14:17.662Z,-0.40
2023-03-08T05:16:45.778Z,-0.40
2023-03-08T05:19:13.954Z,-0.20
2023-03-08T05:21:41.985Z,-0.30
2023-03-08T05:24:10.153Z,-0.30
2023-03-08T05:26:38.493Z,-0.30
2023-03-08T05:29:06.894Z,-0.40
2023-03-08T05:31:37.931Z,-0.30
2023-03-08T05:34:06.040Z,-0.20
2023-03-08T05:36:34.063Z,-0.40
2023-03-08T05:39:02.192Z,-0.30
2023-03-08T05:41:30.156Z,-0.30
2023-03-08T05:43:59.117Z,-0.30
2023-03-08T05:46:27.203Z,-0.30
2023-03-08T05:48:56.704Z,-0.30
2023-03-08T05:51:24.864Z,-0.20
2023-03-08T05:53:52.854Z,-0.30
2023-03-08T05:56:23.083Z,-0.20
2023-03-08T05:58:51.603Z,-0.10
2023-03-08T06:01:21.700Z,-0.20
2023-03-08T06:03:51.531Z,-0.20
2023-03-08T06:06:22.393Z,-0.20
2023-03-08T06:08:50.834Z,-0.20
2023-03-08T06:11:19.421Z,-0.20
2023-03-08T06:13:47.476Z,0.00
2023-03-08T06:16:15.943Z,-0.20
2023-03-08T06:18:44.684Z,-0.10
2023-03-08T06:21:17.961Z,-0.20
2023-03-08T06:23:48.917Z,0.00
2023-03-08T06:26:17.697Z,0.00
2023-03-08T06:28:45.828Z,0.00
2023-03-08T06:31:15.741Z,0.00
2023-03-08T06:33:44.111Z,0.00
2023-03-08T06:36:14.747Z,0.00
2023-03-08T06:38:43.667Z,0.10
2023-03-08T06:41:19.800Z,0.20
2023-03-08T06:43:48.250Z,0.30
2023-03-08T06:46:18.249Z,0.30
2023-03-08T06:48:47.253Z,0.30
2023-03-08T06:51:15.571Z,0.40
2023-03-08T06:53:43.709Z,0.60
2023-03-08T06:56:17.896Z,0.60
2023-03-08T06:58:46.203Z,0.70
2023-03-08T07:01:15.370Z,0.80
2023-03-08T07:03:45.417Z,0.90
2023-03-08T07:06:13.502Z,1.00
2023-03-08T07:08:42.218Z,1.00
2023-03-08T07:11:10.853Z,1.00
2023-03-08T07:13:40.373Z,1.10
2023-03-08T07:16:09.642Z,1.10
2023-03-08T07:18:38.316Z,1.20
2023-03-08T07:21:07.053Z,1.20
2023-03-08T07:23:35.225Z,1.20
2023-03-08T07:26:06.271Z,1.20
2023-03-08T07:28:34.342Z,1.20
2023-03-08T07:31:03.825Z,1.20
2023-03-08T07:33:31.948Z,1.20
2023-03-08T07:36:02.677Z,1.30
2023-03-08T07:38:31.310Z,1.60
2023-03-08T07:40:59.804Z,1.30
2023-03-08T07:43:27.973Z,1.30
2023-03-08T07:45:56.197Z,1.30
2023-03-08T07:48:25.870Z,1.50
2023-03-08T07:50:54.264Z,1.30
2023-03-08T07:53:22.506Z,1.40
2023-03-08T07:55:50.605Z,1.60
2023-03-08T07:58:18.745Z,1.40
2023-03-08T08:00:47.000Z,1.40
2023-03-08T08:03:15.372Z,1.40
2023-03-08T08:05:44.996Z,1.40
2023-03-08T08:08:14.091Z,1.40
2023-03-08T08:10:42.531Z,1.50
2023-03-08T08:13:10.748Z,1.50
2023-03-08T08:15:39.502Z,1.60
2023-03-08T08:18:07.830Z,1.60
2023-03-08T08:20:35.933Z,1.60
2023-03-08T08:23:06.741Z,1.60
2023-03-08T08:25:34.910Z,1.50
2023-03-08T08:28:03.040Z,1.50
2023-03-08T08:30:31.154Z,1.50
2023-03-08T08:33:01.348Z,1.50
2023-03-08T08:35:42.371Z,1.50
2023-03-08T08:38:12.621Z,1.60
2023-03-08T08:40:40.734Z,1.50
2023-03-08T08:43:08.944Z,1.60
2023-03-08T08:45:37.224Z,1.50
2023-03-08T08:48:05.883Z,1.50
2023-03-08T08:50:34.066Z,1.50
2023-03-08T08:53:02.178Z,1.50
2023-03-08T08:55:31.744Z,1.50
2023-03-08T08:57:59.932Z,1.50
2023-03-08T09:00:28.120Z,1.40
2023-03-08T09:02:56.265Z,1.40
2023-03-08T09:05:24.414Z,1.40
2023-03-08T09:07:54.986Z,1.40
2023-03-08T09:10:23.402Z,1.30
2023-03-08T09:12:52.958Z,1.30
2023-03-08T09:15:21.849Z,1.40
2023-03-08T09:17:50.064Z,1.30
2023-03-08T09:20:18.560Z,1.40
2023-03-08T09:22:46.921Z,1.40
2023-03-08T09:25:15.723Z,1.50
2023-03-08T09:27:44.210Z,1.60
2023-03-08T09:30:16.533Z,1.60
2023-03-08T09:32:45.138Z,1.60
2023-03-08T09:35:15.181Z,1.50
2023-03-08T09:37:43.441Z,1.60
2023-03-08T09:40:21.167Z,1.60
2023-03-08T09:42:49.694Z,1.70
2023-03-08T09:45:25.644Z,1.70
2023-03-08T09:48:05.055Z,1.70
2023-03-08T09:50:40.584Z,1.70
2023-03-08T09:53:18.974Z,1.60
2023-03-08T09:55:51.092Z,1.60
2023-03-08T09:58:28.527Z,1.70
2023-03-08T10:01:01.232Z,1.70
2023-03-08T10:04:08.994Z,1.40
2023-03-08T10:06:45.276Z,1.30
2023-03-08T10:09:25.297Z,1.30
2023-03-08T10:12:00.763Z,1.30
2023-03-08T10:14:33.236Z,1.30
2023-03-08T10:17:06.940Z,1.30
2023-03-08T10:19:41.588Z,1.50
2023-03-08T10:22:16.197Z,1.40
2023-03-08T10:24:50.391Z,1.40
2023-03-08T10:27:22.635Z,1.50
2023-03-08T10:29:55.936Z,1.40
2023-03-08T10:32:26.737Z,1.30
2023-03-08T10:35:01.254Z,1.50
2023-03-08T10:37:32.921Z,1.50
2023-03-08T10:40:06.013Z,1.60
2023-03-08T10:42:36.027Z,1.70
2023-03-08T10:45:13.524Z,1.60
2023-03-08T10:47:42.963Z,1.60
2023-03-08T10:50:16.834Z,1.70
2023-03-08T10:52:46.426Z,1.80
2023-03-08T10:55:17.055Z,1.90
2023-03-08T10:57:52.220Z,1.80
2023-03-08T11:00:36.279Z,1.60
2023-03-08T11:03:14.095Z,1.60
2023-03-08T11:05:53.475Z,1.80
2023-03-08T11:08:24.113Z,1.60
2023-03-08T11:11:02.270Z,1.60
2023-03-08T11:13:32.856Z,1.80
2023-03-08T11:16:17.097Z,1.90
2023-03-08T11:18:59.172Z,2.30
2023-03-08T11:21:35.457Z,2.50
2023-03-08T11:24:18.841Z,2.80
2023-03-08T11:26:58.824Z,3.00
2023-03-08T11:29:38.399Z,3.10
2023-03-08T11:32:18.969Z,3.10
2023-03-08T11:35:05.770Z,2.90
2023-03-08T11:37:40.174Z,3.10
2023-03-08T11:40:23.807Z,2.80
2023-03-08T11:43:03.728Z,2.70
2023-03-08T11:45:37.976Z,2.50
2023-03-08T11:48:21.571Z,2.40
2023-03-08T11:50:56.679Z,2.20
2023-03-08T11:53:35.090Z,2.20
2023-03-08T11:56:29.476Z,2.10
2023-03-08T11:59:04.449Z,2.00
2023-03-08T12:01:39.891Z,2.10
2023-03-08T12:04:12.483Z,2.10
2023-03-08T12:06:43.809Z,2.00
2023-03-08T12:09:22.665Z,2.00
2023-03-08T12:11:56.231Z,2.10
2023-03-08T12:14:28.714Z,2.20
2023-03-08T12:17:05.691Z,2.30
2023-03-08T12:19:41.865Z,2.10
2023-03-08T12:22:23.085Z,2.20
2023-03-08T12:24:57.541Z,2.30
2023-03-08T12:27:31.347Z,2.30
2023-03-08T12:30:14.017Z,2.20
2023-03-08T12:32:43.825Z,2.20
2023-03-08T12:35:31.657Z,2.50
2023-03-08T12:38:03.153Z,2.40
2023-03-08T12:40:42.700Z,2.50
2023-03-08T12:43:12.752Z,2.40
2023-03-08T12:45:42.249Z,2.40
2023-03-08T12:48:25.025Z,2.30
2023-03-08T12:51:04.247Z,2.30
2023-03-08T12:53:38.653Z,2.40
2023-03-08T12:56:18.620Z,2.30
2023-03-08T12:58:52.150Z,2.30
2023-03-08T13:01:37.903Z,2.30
2023-03-08T13:04:07.777Z,2.20
2023-03-08T13:06:59.975Z,2.10
2023-03-08T13:09:33.902Z,2.00
2023-03-08T13:12:17.493Z,2.00
2023-03-08T13:14:47.146Z,1.90
2023-03-08T13:17:39.336Z,1.90
2023-03-08T13:20:18.509Z,2.00
2023-03-08T13:23:00.224Z,2.00
2023-03-08T13:25:44.327Z,2.20
2023-03-08T13:28:14.339Z,2.20
2023-03-08T13:30:49.815Z,2.30
2023-03-08T13:33:21.439Z,2.30
2023-03-08T13:36:00.578Z,2.30
2023-03-08T13:38:30.970Z,2.40
2023-03-08T13:41:06.740Z,2.40
2023-03-08T13:43:36.695Z,2.50
2023-03-08T13:46:07.657Z,2.60
2023-03-08T13:48:37.867Z,2.50
2023-03-08T13:51:07.196Z,2.40
2023-03-08T13:53:38.079Z,2.30
2023-03-08T13:56:09.251Z,2.30
2023-03-08T13:58:40.350Z,2.30
2023-03-08T14:01:14.521Z,2.40
2023-03-08T14:03:44.044Z,2.60
2023-03-08T14:06:19.875Z,2.60
2023-03-08T14:08:48.420Z,2.60
2023-03-08T14:11:21.688Z,2.50
2023-03-08T14:13:52.049Z,2.60
2023-03-08T14:16:30.882Z,2.50
2023-03-08T14:19:00.376Z,2.60
2023-03-08T14:21:30.458Z,2.60
2023-03-08T14:24:00.659Z,2.70
2023-03-08T14:26:35.737Z,2.80
2023-03-08T14:29:18.282Z,2.90
2023-03-08T14:32:29.149Z,2.80
2023-03-08T14:35:08.050Z,2.70
2023-03-08T14:37:36.891Z,2.60
2023-03-08T14:40:26.268Z,2.60
2023-03-08T14:42:57.434Z,2.60
2023-03-08T14:45:29.630Z,2.60
2023-03-08T14:47:59.690Z,2.60
2023-03-08T14:50:30.632Z,2.70
2023-03-08T14:53:00.486Z,2.70
2023-03-08T14:55:30.886Z,2.80
2023-03-08T14:58:03.355Z,2.80
2023-03-08T15:00:32.653Z,2.90
2023-03-08T15:03:01.888Z,2.90
2023-03-08T15:07:56.123Z,3.00
2023-03-08T15:10:29.230Z,2.90
2023-03-08T15:12:58.011Z,2.90
2023-03-08T15:15:27.872Z,2.90
2023-03-08T15:17:56.443Z,2.90
2023-03-08T15:20:25.074Z,2.70
2023-03-08T15:22:54.982Z,2.60
2023-03-08T15:25:44.840Z,2.60
2023-03-08T15:28:16.416Z,2.50
2023-03-08T15:30:45.988Z,2.60
2023-03-08T15:33:14.172Z,2.70
2023-03-08T15:35:42.793Z,2.50
2023-03-08T15:38:13.671Z,2.50
2023-03-08T15:40:43.088Z,2.40
2023-03-08T15:43:11.956Z,2.60
2023-03-08T15:45:40.953Z,2.50
2023-03-08T15:48:15.396Z,2.50
2023-03-08T15:50:44.295Z,2.50
2023-03-08T15:53:20.684Z,2.80
2023-03-08T15:55:54.568Z,2.40
2023-03-08T15:58:22.864Z,2.40
2023-03-08T16:00:52.251Z,2.30
2023-03-08T16:03:30.790Z,2.30
2023-03-08T16:06:00.143Z,2.30
2023-03-08T16:08:29.255Z,2.20
2023-03-08T16:11:03.801Z,2.20
2023-03-08T16:13:32.261Z,2.20
2023-03-08T16:16:04.497Z,2.20
2023-03-08T16:18:35.785Z,2.20
2023-03-08T16:21:08.024Z,2.10
2023-03-08T16:23:36.388Z,2.10
2023-03-08T16:26:15.190Z,2.20
2023-03-08T16:28:45.175Z,2.10
2023-03-08T16:31:13.745Z,2.10
2023-03-08T16:33:43.317Z,2.10
2023-03-08T16:36:12.667Z,2.10
2023-03-08T16:38:41.640Z,2.00
2023-03-08T16:41:14.305Z,2.00
2023-03-08T16:43:47.657Z,2.00
2023-03-08T16:46:17.656Z,2.00
2023-03-08T16:48:49.365Z,2.00
2023-03-08T16:51:19.000Z,2.10
2023-03-08T16:53:47.296Z,1.90
2023-03-08T16:56:19.114Z,1.80
2023-03-08T16:58:48.305Z,1.80
2023-03-08T17:01:19.151Z,1.80
2023-03-08T17:03:49.311Z,1.70
2023-03-08T17:06:19.883Z,1.70
2023-03-08T17:08:48.282Z,1.70
2023-03-08T17:11:17.852Z,1.60
2023-03-08T17:13:51.079Z,1.60
2023-03-08T17:16:20.001Z,1.80
2023-03-08T17:18:50.502Z,1.50
2023-03-08T17:21:19.486Z,1.70
2023-03-08T17:23:47.786Z,1.70
2023-03-08T17:26:16.663Z,1.50
2023-03-08T17:28:45.078Z,1.70
2023-03-08T17:31:16.323Z,1.50
2023-03-08T17:33:44.745Z,1.50
2023-03-08T17:36:16.349Z,1.80
2023-03-08T17:38:44.709Z,1.50
2023-03-08T17:41:14.988Z,1.60
2023-03-08T17:43:43.178Z,1.70
2023-03-08T17:46:14.509Z,1.60
2023-03-08T17:48:43.433Z,1.50
2023-03-08T17:51:15.091Z,1.50
2023-03-08T17:53:43.692Z,1.50
2023-03-08T17:56:14.324Z,1.80
2023-03-08T17:58:42.609Z,1.50
2023-03-08T18:01:12.040Z,1.50
2023-03-08T18:03:40.626Z,1.50
2023-03-08T18:06:09.949Z,1.50
2023-03-08T18:08:39.765Z,1.50
2023-03-08T18:11:08.024Z,1.50
2023-03-08T18:13:36.311Z,1.50
2023-03-08T18:16:05.822Z,1.50
2023-03-08T18:18:34.514Z,1.50
2023-03-08T18:21:12.665Z,1.50
2023-03-08T18:23:43.920Z,1.50
2023-03-08T18:26:13.017Z,1.50
2023-03-08T18:28:42.225Z,1.50
2023-03-08T18:31:12.038Z,1.50
2023-03-08T18:33:40.328Z,1.50
2023-03-08T18:36:09.093Z,1.50
2023-03-08T18:38:37.541Z,1.50
2023-03-08T18:41:18.425Z,1.50
2023-03-08T18:43:46.907Z,1.40
2023-03-08T18:46:15.694Z,1.40
2023-03-08T18:48:47.374Z,1.40
2023-03-08T18:51:16.621Z,1.50
2023-03-08T18:53:44.986Z,1.40
2023-03-08T18:56:13.528Z,1.40
2023-03-08T18:58:43.318Z,1.40
2023-03-08T19:01:13.532Z,1.40
2023-03-08T19:03:42.482Z,1.40
2023-03-08T19:06:11.299Z,1.40
2023-03-08T19:08:39.580Z,1.40
2023-03-08T19:11:15.468Z,1.40
2023-03-08T19:13:46.025Z,1.40
2023-03-08T19:16:25.330Z,1.40
2023-03-08T19:18:55.908Z,1.50
2023-03-08T19:21:26.158Z,1.50
2023-03-08T19:23:54.913Z,1.40
2023-03-08T19:26:41.169Z,1.50
2023-03-08T19:29:13.775Z,1.50
2023-03-08T19:31:44.213Z,1.50
2023-03-08T19:34:14.404Z,1.50
2023-03-08T19:36:44.314Z,1.40
2023-03-08T19:39:15.670Z,1.40
2023-03-08T19:41:44.436Z,1.40
2023-03-08T19:44:14.428Z,1.40
2023-03-08T19:46:42.622Z,1.50
2023-03-08T19:49:14.927Z,1.30
2023-03-08T19:51:43.965Z,1.40
2023-03-08T19:54:12.863Z,1.40
2023-03-08T19:56:41.215Z,1.40
2023-03-08T19:59:09.759Z,1.40
2023-03-08T20:01:39.817Z,1.40
2023-03-08T20:04:09.196Z,1.40
2023-03-08T20:06:39.847Z,1.40
2023-03-08T20:09:10.481Z,1.40
2023-03-08T20:11:38.855Z,1.40
2023-03-08T20:14:07.109Z,1.40
2023-03-08T20:16:35.694Z,1.30
2023-03-08T20:19:05.681Z,1.30
2023-03-08T20:21:34.888Z,1.40
2023-03-08T20:24:04.262Z,1.30
2023-03-08T20:26:35.175Z,1.30
2023-03-08T20:29:04.103Z,1.20
2023-03-08T20:31:33.251Z,1.20
2023-03-08T20:34:08.914Z,1.20
2023-03-08T20:36:37.654Z,1.20
2023-03-08T20:39:06.232Z,1.10
2023-03-08T20:41:34.645Z,1.20
2023-03-08T20:44:03.078Z,1.20
2023-03-08T20:46:33.831Z,1.10
2023-03-08T20:49:02.835Z,1.10
2023-03-08T20:51:33.105Z,1.10
2023-03-08T20:54:01.695Z,1.10
2023-03-08T20:56:30.063Z,1.00
2023-03-08T20:59:00.743Z,1.10
2023-03-08T21:01:31.391Z,1.10
2023-03-08T21:03:59.833Z,1.10
2023-03-08T21:06:30.239Z,1.40
2023-03-08T21:09:00.903Z,1.10
2023-03-08T21:11:29.665Z,1.10
2023-03-08T21:13:57.787Z,1.20
2023-03-08T21:16:27.482Z,1.40
2023-03-08T21:18:57.712Z,1.20
2023-03-08T21:21:29.086Z,1.20
2023-03-08T21:24:01.619Z,1.30
2023-03-08T21:26:30.955Z,1.30
2023-03-08T21:29:02.494Z,1.30
2023-03-08T21:31:33.079Z,1.20
2023-03-08T21:34:03.622Z,1.30
2023-03-08T21:36:32.596Z,1.40
2023-03-08T21:39:02.180Z,1.40
2023-03-08T21:41:32.335Z,1.40
2023-03-08T21:44:02.849Z,1.40
2023-03-08T21:46:31.574Z,1.40
2023-03-08T21:48:59.683Z,1.50
2023-03-08T21:51:28.046Z,1.40
2023-03-08T21:53:57.562Z,1.40
2023-03-08T21:56:27.038Z,1.50
2023-03-08T21:58:55.150Z,1.50
2023-03-08T22:01:25.012Z,1.50
2023-03-08T22:03:54.256Z,1.50
2023-03-08T22:06:22.720Z,1.50
2023-03-08T22:08:51.461Z,1.50
2023-03-08T22:11:20.863Z,1.50
2023-03-08T22:13:52.292Z,1.40
2023-03-08T22:16:21.050Z,1.40
2023-03-08T22:18:52.576Z,1.40
2023-03-08T22:21:20.786Z,1.40
2023-03-08T22:23:51.623Z,1.30
2023-03-08T22:26:20.895Z,1.30
2023-03-08T22:28:49.410Z,1.20
2023-03-08T22:31:20.281Z,1.20
2023-03-08T22:33:48.539Z,1.10
2023-03-08T22:36:18.347Z,1.10
2023-03-08T22:38:46.660Z,1.10
2023-03-08T22:41:17.455Z,1.00
2023-03-08T22:43:46.144Z,1.00
2023-03-08T22:46:16.169Z,1.00
2023-03-08T22:48:46.805Z,1.00
2023-03-08T22:51:16.725Z,1.00
2023-03-08T22:53:44.991Z,1.00
2023-03-08T22:56:19.857Z,1.00
2023-03-08T22:58:48.305Z,0.90
2023-03-08T23:01:18.613Z,1.00
2023-03-08T23:03:49.848Z,0.90
2023-03-08T23:06:19.070Z,1.00
2023-03-08T23:08:47.885Z,1.20
2023-03-08T23:11:16.355Z,0.90
2023-03-08T23:13:44.730Z,0.90
2023-03-08T23:16:13.835Z,0.90
2023-03-08T23:18:42.599Z,1.00
2023-03-08T23:21:14.364Z,0.90
2023-03-08T23:23:43.145Z,0.90
2023-03-08T23:26:15.084Z,0.90
2023-03-08T23:28:43.455Z,0.90
2023-03-08T23:31:13.126Z,0.90
2023-03-08T23:33:42.054Z,0.90
2023-03-08T23:36:14.112Z,0.90
2023-03-08T23:38:42.462Z,1.00
2023-03-08T23:41:11.896Z,1.00
2023-03-08T23:43:40.588Z,1.00
2023-03-08T23:46:09.571Z,1.00
2023-03-08T23:48:37.691Z,1.00
2023-03-08T23:51:06.577Z,1.00
2023-03-08T23:53:36.388Z,1.00
2023-03-08T23:56:05.563Z,1.30
2023-03-08T23:58:33.876Z,1.10
